sensor_id;sensor_type;location;lat;lon;timestamp;P1;durP1;ratioP1;P2;durP2;ratioP2
53971;SDS011;40530;53.062;6.078;2023-12-20T00:02:20;20.95;;;2.70;;
53971;SDS011;40530;53.062;6.078;2023-12-20T00:04:46;26.30;;;2.83;;
53971;SDS011;40530;53.062;6.078;2023-12-20T00:07:12;12.55;;;2.15;;
53971;SDS011;40530;53.062;6.078;2023-12-20T00:09:38;19.50;;;2.20;;
53971;SDS011;40530;53.062;6.078;2023-12-20T00:12:05;17.45;;;1.95;;
53971;SDS011;40530;53.062;6.078;2023-12-20T00:14:31;23.50;;;3.80;;
53971;SDS011;40530;53.062;6.078;2023-12-20T00:16:57;15.90;;;2.88;;
53971;SDS011;40530;53.062;6.078;2023-12-20T00:19:23;24.92;;;4.28;;
53971;SDS011;40530;53.062;6.078;2023-12-20T00:21:49;21.25;;;2.17;;
53971;SDS011;40530;53.062;6.078;2023-12-20T00:24:15;27.80;;;3.30;;
53971;SDS011;40530;53.062;6.078;2023-12-20T00:26:41;17.85;;;2.38;;
53971;SDS011;40530;53.062;6.078;2023-12-20T00:29:07;21.08;;;2.72;;
53971;SDS011;40530;53.062;6.078;2023-12-20T00:31:33;25.67;;;3.17;;
53971;SDS011;40530;53.062;6.078;2023-12-20T00:33:59;24.23;;;2.63;;
53971;SDS011;40530;53.062;6.078;2023-12-20T00:36:25;27.23;;;3.10;;
53971;SDS011;40530;53.062;6.078;2023-12-20T00:38:52;23.27;;;3.67;;
53971;SDS011;40530;53.062;6.078;2023-12-20T00:41:18;31.20;;;3.05;;
53971;SDS011;40530;53.062;6.078;2023-12-20T00:43:44;24.95;;;2.67;;
53971;SDS011;40530;53.062;6.078;2023-12-20T00:46:10;17.27;;;2.85;;
53971;SDS011;40530;53.062;6.078;2023-12-20T00:48:36;23.70;;;3.70;;
53971;SDS011;40530;53.062;6.078;2023-12-20T00:51:02;22.85;;;3.78;;
53971;SDS011;40530;53.062;6.078;2023-12-20T00:53:28;24.05;;;3.28;;
53971;SDS011;40530;53.062;6.078;2023-12-20T00:55:54;30.75;;;4.50;;
53971;SDS011;40530;53.062;6.078;2023-12-20T00:58:21;21.92;;;2.38;;
53971;SDS011;40530;53.062;6.078;2023-12-20T01:00:47;14.98;;;2.92;;
53971;SDS011;40530;53.062;6.078;2023-12-20T01:03:13;31.27;;;3.53;;
53971;SDS011;40530;53.062;6.078;2023-12-20T01:05:40;29.73;;;4.63;;
53971;SDS011;40530;53.062;6.078;2023-12-20T01:08:06;22.95;;;2.55;;
53971;SDS011;40530;53.062;6.078;2023-12-20T01:10:32;19.73;;;3.15;;
53971;SDS011;40530;53.062;6.078;2023-12-20T01:12:58;18.20;;;2.45;;
53971;SDS011;40530;53.062;6.078;2023-12-20T01:15:24;20.77;;;2.38;;
53971;SDS011;40530;53.062;6.078;2023-12-20T01:17:51;25.17;;;2.85;;
53971;SDS011;40530;53.062;6.078;2023-12-20T01:20:17;14.98;;;2.70;;
53971;SDS011;40530;53.062;6.078;2023-12-20T01:22:45;18.17;;;2.83;;
53971;SDS011;40530;53.062;6.078;2023-12-20T01:25:11;24.83;;;3.80;;
53971;SDS011;40530;53.062;6.078;2023-12-20T01:27:37;21.92;;;3.00;;
53971;SDS011;40530;53.062;6.078;2023-12-20T01:30:03;27.08;;;4.50;;
53971;SDS011;40530;53.062;6.078;2023-12-20T01:32:29;20.63;;;4.13;;
53971;SDS011;40530;53.062;6.078;2023-12-20T01:34:55;31.52;;;5.13;;
53971;SDS011;40530;53.062;6.078;2023-12-20T01:37:21;22.10;;;3.67;;
53971;SDS011;40530;53.062;6.078;2023-12-20T01:39:50;29.77;;;4.82;;
53971;SDS011;40530;53.062;6.078;2023-12-20T01:42:16;24.05;;;3.47;;
53971;SDS011;40530;53.062;6.078;2023-12-20T01:44:42;24.92;;;3.38;;
53971;SDS011;40530;53.062;6.078;2023-12-20T01:47:08;28.52;;;4.53;;
53971;SDS011;40530;53.062;6.078;2023-12-20T01:49:35;27.13;;;3.85;;
53971;SDS011;40530;53.062;6.078;2023-12-20T01:52:01;23.08;;;4.00;;
53971;SDS011;40530;53.062;6.078;2023-12-20T01:54:27;36.08;;;4.30;;
53971;SDS011;40530;53.062;6.078;2023-12-20T01:56:53;22.23;;;2.97;;
53971;SDS011;40530;53.062;6.078;2023-12-20T01:59:19;31.88;;;4.57;;
53971;SDS011;40530;53.062;6.078;2023-12-20T02:01:46;42.55;;;5.55;;
53971;SDS011;40530;53.062;6.078;2023-12-20T02:04:12;35.67;;;7.07;;
53971;SDS011;40530;53.062;6.078;2023-12-20T02:06:38;25.23;;;3.63;;
53971;SDS011;40530;53.062;6.078;2023-12-20T02:09:05;25.10;;;3.85;;
53971;SDS011;40530;53.062;6.078;2023-12-20T02:11:32;36.15;;;5.05;;
53971;SDS011;40530;53.062;6.078;2023-12-20T02:14:00;37.42;;;4.13;;
53971;SDS011;40530;53.062;6.078;2023-12-20T02:16:26;33.13;;;5.57;;
53971;SDS011;40530;53.062;6.078;2023-12-20T02:18:53;32.20;;;4.45;;
53971;SDS011;40530;53.062;6.078;2023-12-20T02:21:24;30.65;;;3.80;;
53971;SDS011;40530;53.062;6.078;2023-12-20T02:23:50;30.30;;;3.78;;
53971;SDS011;40530;53.062;6.078;2023-12-20T02:26:16;36.80;;;4.90;;
53971;SDS011;40530;53.062;6.078;2023-12-20T02:28:43;31.00;;;5.53;;
53971;SDS011;40530;53.062;6.078;2023-12-20T02:31:09;50.30;;;9.73;;
53971;SDS011;40530;53.062;6.078;2023-12-20T02:33:35;34.65;;;6.07;;
53971;SDS011;40530;53.062;6.078;2023-12-20T02:36:01;36.55;;;7.10;;
53971;SDS011;40530;53.062;6.078;2023-12-20T02:38:27;32.05;;;5.15;;
53971;SDS011;40530;53.062;6.078;2023-12-20T02:40:53;36.97;;;4.50;;
53971;SDS011;40530;53.062;6.078;2023-12-20T02:43:20;41.67;;;5.60;;
53971;SDS011;40530;53.062;6.078;2023-12-20T02:45:46;32.50;;;4.20;;
53971;SDS011;40530;53.062;6.078;2023-12-20T02:48:12;29.13;;;5.35;;
53971;SDS011;40530;53.062;6.078;2023-12-20T02:50:38;28.77;;;4.35;;
53971;SDS011;40530;53.062;6.078;2023-12-20T02:53:04;33.08;;;4.35;;
53971;SDS011;40530;53.062;6.078;2023-12-20T02:55:30;38.35;;;5.35;;
53971;SDS011;40530;53.062;6.078;2023-12-20T02:57:56;28.90;;;4.72;;
53971;SDS011;40530;53.062;6.078;2023-12-20T03:00:22;35.83;;;5.32;;
53971;SDS011;40530;53.062;6.078;2023-12-20T03:02:49;27.45;;;4.60;;
53971;SDS011;40530;53.062;6.078;2023-12-20T03:05:15;26.85;;;4.13;;
53971;SDS011;40530;53.062;6.078;2023-12-20T03:07:41;35.83;;;5.72;;
53971;SDS011;40530;53.062;6.078;2023-12-20T03:10:07;32.15;;;4.80;;
53971;SDS011;40530;53.062;6.078;2023-12-20T03:12:34;24.42;;;4.30;;
53971;SDS011;40530;53.062;6.078;2023-12-20T03:15:00;36.30;;;5.22;;
53971;SDS011;40530;53.062;6.078;2023-12-20T03:17:26;37.83;;;5.05;;
53971;SDS011;40530;53.062;6.078;2023-12-20T03:19:52;41.13;;;4.82;;
53971;SDS011;40530;53.062;6.078;2023-12-20T03:22:18;30.70;;;4.93;;
53971;SDS011;40530;53.062;6.078;2023-12-20T03:24:44;31.80;;;6.28;;
53971;SDS011;40530;53.062;6.078;2023-12-20T03:27:10;28.80;;;4.90;;
53971;SDS011;40530;53.062;6.078;2023-12-20T03:29:36;37.40;;;4.65;;
53971;SDS011;40530;53.062;6.078;2023-12-20T03:32:02;37.55;;;5.00;;
53971;SDS011;40530;53.062;6.078;2023-12-20T03:34:29;37.08;;;3.75;;
53971;SDS011;40530;53.062;6.078;2023-12-20T03:36:55;41.33;;;6.90;;
53971;SDS011;40530;53.062;6.078;2023-12-20T03:39:21;36.75;;;5.43;;
53971;SDS011;40530;53.062;6.078;2023-12-20T03:41:47;35.33;;;4.63;;
53971;SDS011;40530;53.062;6.078;2023-12-20T03:44:13;41.60;;;5.57;;
53971;SDS011;40530;53.062;6.078;2023-12-20T03:46:39;30.42;;;5.03;;
53971;SDS011;40530;53.062;6.078;2023-12-20T03:49:05;37.72;;;5.93;;
53971;SDS011;40530;53.062;6.078;2023-12-20T03:51:31;35.63;;;5.38;;
53971;SDS011;40530;53.062;6.078;2023-12-20T03:53:57;35.10;;;4.68;;
53971;SDS011;40530;53.062;6.078;2023-12-20T03:56:23;31.90;;;3.88;;
53971;SDS011;40530;53.062;6.078;2023-12-20T03:58:49;23.90;;;5.68;;
53971;SDS011;40530;53.062;6.078;2023-12-20T04:01:15;27.98;;;4.75;;
53971;SDS011;40530;53.062;6.078;2023-12-20T04:03:41;25.38;;;3.85;;
53971;SDS011;40530;53.062;6.078;2023-12-20T04:06:07;34.05;;;5.60;;
53971;SDS011;40530;53.062;6.078;2023-12-20T04:08:33;46.35;;;7.03;;
53971;SDS011;40530;53.062;6.078;2023-12-20T04:10:59;37.20;;;6.05;;
53971;SDS011;40530;53.062;6.078;2023-12-20T04:13:25;42.97;;;5.28;;
53971;SDS011;40530;53.062;6.078;2023-12-20T04:15:51;36.65;;;4.60;;
53971;SDS011;40530;53.062;6.078;2023-12-20T04:18:17;30.63;;;5.18;;
53971;SDS011;40530;53.062;6.078;2023-12-20T04:20:43;29.02;;;4.47;;
53971;SDS011;40530;53.062;6.078;2023-12-20T04:23:10;30.30;;;4.70;;
53971;SDS011;40530;53.062;6.078;2023-12-20T04:25:36;32.35;;;5.15;;
53971;SDS011;40530;53.062;6.078;2023-12-20T04:28:02;27.90;;;4.88;;
53971;SDS011;40530;53.062;6.078;2023-12-20T04:30:28;33.03;;;4.05;;
53971;SDS011;40530;53.062;6.078;2023-12-20T04:32:54;33.42;;;5.78;;
53971;SDS011;40530;53.062;6.078;2023-12-20T04:35:22;30.77;;;4.53;;
53971;SDS011;40530;53.062;6.078;2023-12-20T04:37:48;36.28;;;4.75;;
53971;SDS011;40530;53.062;6.078;2023-12-20T04:40:14;29.58;;;3.85;;
53971;SDS011;40530;53.062;6.078;2023-12-20T04:42:40;29.88;;;3.75;;
53971;SDS011;40530;53.062;6.078;2023-12-20T04:45:06;25.08;;;4.90;;
53971;SDS011;40530;53.062;6.078;2023-12-20T04:47:32;27.92;;;3.83;;
53971;SDS011;40530;53.062;6.078;2023-12-20T04:49:59;30.27;;;5.80;;
53971;SDS011;40530;53.062;6.078;2023-12-20T04:52:25;33.58;;;4.03;;
53971;SDS011;40530;53.062;6.078;2023-12-20T04:54:51;34.20;;;5.75;;
53971;SDS011;40530;53.062;6.078;2023-12-20T04:57:17;27.75;;;4.07;;
53971;SDS011;40530;53.062;6.078;2023-12-20T04:59:43;37.85;;;5.57;;
53971;SDS011;40530;53.062;6.078;2023-12-20T05:02:09;34.75;;;4.82;;
53971;SDS011;40530;53.062;6.078;2023-12-20T05:04:35;30.63;;;4.93;;
53971;SDS011;40530;53.062;6.078;2023-12-20T05:07:01;35.03;;;4.47;;
53971;SDS011;40530;53.062;6.078;2023-12-20T05:09:29;32.22;;;4.65;;
53971;SDS011;40530;53.062;6.078;2023-12-20T05:11:56;34.92;;;5.32;;
53971;SDS011;40530;53.062;6.078;2023-12-20T05:14:22;36.13;;;4.95;;
53971;SDS011;40530;53.062;6.078;2023-12-20T05:16:48;42.92;;;5.43;;
53971;SDS011;40530;53.062;6.078;2023-12-20T05:19:14;34.50;;;5.53;;
53971;SDS011;40530;53.062;6.078;2023-12-20T05:21:40;24.85;;;4.45;;
53971;SDS011;40530;53.062;6.078;2023-12-20T05:24:06;46.47;;;5.95;;
53971;SDS011;40530;53.062;6.078;2023-12-20T05:26:32;37.70;;;5.10;;
53971;SDS011;40530;53.062;6.078;2023-12-20T05:28:59;28.35;;;4.13;;
53971;SDS011;40530;53.062;6.078;2023-12-20T05:31:25;28.83;;;4.38;;
53971;SDS011;40530;53.062;6.078;2023-12-20T05:33:51;36.97;;;5.35;;
53971;SDS011;40530;53.062;6.078;2023-12-20T05:36:18;35.38;;;4.68;;
53971;SDS011;40530;53.062;6.078;2023-12-20T05:38:44;38.80;;;5.65;;
53971;SDS011;40530;53.062;6.078;2023-12-20T05:41:10;30.17;;;4.05;;
53971;SDS011;40530;53.062;6.078;2023-12-20T05:43:36;37.85;;;5.05;;
53971;SDS011;40530;53.062;6.078;2023-12-20T05:46:03;31.77;;;5.18;;
53971;SDS011;40530;53.062;6.078;2023-12-20T05:48:29;28.00;;;4.88;;
53971;SDS011;40530;53.062;6.078;2023-12-20T05:50:55;32.00;;;5.68;;
53971;SDS011;40530;53.062;6.078;2023-12-20T05:53:21;30.77;;;4.78;;
53971;SDS011;40530;53.062;6.078;2023-12-20T05:55:47;29.33;;;4.43;;
53971;SDS011;40530;53.062;6.078;2023-12-20T05:58:13;28.95;;;4.07;;
53971;SDS011;40530;53.062;6.078;2023-12-20T06:00:39;25.88;;;4.07;;
53971;SDS011;40530;53.062;6.078;2023-12-20T06:03:05;32.80;;;5.45;;
53971;SDS011;40530;53.062;6.078;2023-12-20T06:05:31;33.92;;;5.03;;
53971;SDS011;40530;53.062;6.078;2023-12-20T06:07:57;32.22;;;4.90;;
53971;SDS011;40530;53.062;6.078;2023-12-20T06:10:26;35.83;;;4.68;;
53971;SDS011;40530;53.062;6.078;2023-12-20T06:12:52;29.27;;;4.07;;
53971;SDS011;40530;53.062;6.078;2023-12-20T06:15:18;33.03;;;5.25;;
53971;SDS011;40530;53.062;6.078;2023-12-20T06:17:44;35.05;;;5.03;;
53971;SDS011;40530;53.062;6.078;2023-12-20T06:20:11;32.40;;;6.57;;
53971;SDS011;40530;53.062;6.078;2023-12-20T06:22:38;38.67;;;6.00;;
53971;SDS011;40530;53.062;6.078;2023-12-20T06:25:04;38.88;;;4.72;;
53971;SDS011;40530;53.062;6.078;2023-12-20T06:27:31;55.58;;;18.00;;
53971;SDS011;40530;53.062;6.078;2023-12-20T06:29:58;42.33;;;6.70;;
53971;SDS011;40530;53.062;6.078;2023-12-20T06:32:24;29.77;;;6.65;;
53971;SDS011;40530;53.062;6.078;2023-12-20T06:34:50;31.73;;;5.30;;
53971;SDS011;40530;53.062;6.078;2023-12-20T06:37:16;30.83;;;6.57;;
53971;SDS011;40530;53.062;6.078;2023-12-20T06:39:42;32.03;;;5.15;;
53971;SDS011;40530;53.062;6.078;2023-12-20T06:42:08;40.47;;;5.55;;
53971;SDS011;40530;53.062;6.078;2023-12-20T06:44:34;31.67;;;4.78;;
53971;SDS011;40530;53.062;6.078;2023-12-20T06:47:00;29.67;;;4.68;;
53971;SDS011;40530;53.062;6.078;2023-12-20T06:49:26;31.35;;;4.28;;
53971;SDS011;40530;53.062;6.078;2023-12-20T06:51:52;27.48;;;6.65;;
53971;SDS011;40530;53.062;6.078;2023-12-20T06:54:18;31.88;;;4.30;;
53971;SDS011;40530;53.062;6.078;2023-12-20T06:56:45;34.83;;;4.80;;
53971;SDS011;40530;53.062;6.078;2023-12-20T06:59:11;37.22;;;4.38;;
53971;SDS011;40530;53.062;6.078;2023-12-20T07:01:37;33.15;;;5.47;;
53971;SDS011;40530;53.062;6.078;2023-12-20T07:04:03;38.03;;;5.22;;
53971;SDS011;40530;53.062;6.078;2023-12-20T07:06:29;29.75;;;5.03;;
53971;SDS011;40530;53.062;6.078;2023-12-20T07:08:55;39.00;;;5.45;;
53971;SDS011;40530;53.062;6.078;2023-12-20T07:11:21;37.58;;;7.93;;
53971;SDS011;40530;53.062;6.078;2023-12-20T07:13:48;34.47;;;5.53;;
53971;SDS011;40530;53.062;6.078;2023-12-20T07:16:14;35.53;;;7.60;;
53971;SDS011;40530;53.062;6.078;2023-12-20T07:18:40;39.13;;;7.82;;
53971;SDS011;40530;53.062;6.078;2023-12-20T07:21:06;50.33;;;7.65;;
53971;SDS011;40530;53.062;6.078;2023-12-20T07:23:33;48.85;;;17.42;;
53971;SDS011;40530;53.062;6.078;2023-12-20T07:25:59;38.00;;;7.13;;
53971;SDS011;40530;53.062;6.078;2023-12-20T07:28:25;41.15;;;7.88;;
53971;SDS011;40530;53.062;6.078;2023-12-20T07:30:51;34.42;;;6.00;;
53971;SDS011;40530;53.062;6.078;2023-12-20T07:33:17;35.92;;;6.25;;
53971;SDS011;40530;53.062;6.078;2023-12-20T07:35:43;39.63;;;7.75;;
53971;SDS011;40530;53.062;6.078;2023-12-20T07:38:10;29.67;;;5.22;;
53971;SDS011;40530;53.062;6.078;2023-12-20T07:40:37;36.55;;;5.22;;
53971;SDS011;40530;53.062;6.078;2023-12-20T07:43:04;42.90;;;5.78;;
53971;SDS011;40530;53.062;6.078;2023-12-20T07:45:30;35.92;;;5.15;;
53971;SDS011;40530;53.062;6.078;2023-12-20T07:47:56;28.98;;;4.40;;
53971;SDS011;40530;53.062;6.078;2023-12-20T07:50:22;36.97;;;6.32;;
53971;SDS011;40530;53.062;6.078;2023-12-20T07:52:48;32.03;;;5.97;;
53971;SDS011;40530;53.062;6.078;2023-12-20T07:55:14;41.65;;;7.13;;
53971;SDS011;40530;53.062;6.078;2023-12-20T07:57:40;32.90;;;4.63;;
53971;SDS011;40530;53.062;6.078;2023-12-20T08:00:06;26.50;;;5.97;;
53971;SDS011;40530;53.062;6.078;2023-12-20T08:02:33;32.15;;;6.10;;
53971;SDS011;40530;53.062;6.078;2023-12-20T08:04:59;26.75;;;5.05;;
53971;SDS011;40530;53.062;6.078;2023-12-20T08:07:25;34.00;;;5.75;;
53971;SDS011;40530;53.062;6.078;2023-12-20T08:09:51;37.05;;;5.88;;
53971;SDS011;40530;53.062;6.078;2023-12-20T08:12:19;77.10;;;31.20;;
53971;SDS011;40530;53.062;6.078;2023-12-20T08:14:45;33.97;;;5.40;;
53971;SDS011;40530;53.062;6.078;2023-12-20T08:17:12;29.65;;;4.68;;
53971;SDS011;40530;53.062;6.078;2023-12-20T08:19:38;24.92;;;3.97;;
53971;SDS011;40530;53.062;6.078;2023-12-20T08:22:04;25.38;;;4.72;;
53971;SDS011;40530;53.062;6.078;2023-12-20T08:24:30;31.38;;;5.25;;
53971;SDS011;40530;53.062;6.078;2023-12-20T08:26:56;34.08;;;4.32;;
53971;SDS011;40530;53.062;6.078;2023-12-20T08:29:22;26.48;;;4.32;;
53971;SDS011;40530;53.062;6.078;2023-12-20T08:31:51;46.90;;;6.10;;
53971;SDS011;40530;53.062;6.078;2023-12-20T08:34:18;38.33;;;6.05;;
53971;SDS011;40530;53.062;6.078;2023-12-20T08:36:44;29.65;;;4.40;;
53971;SDS011;40530;53.062;6.078;2023-12-20T08:39:10;35.05;;;5.75;;
53971;SDS011;40530;53.062;6.078;2023-12-20T08:41:36;35.05;;;6.07;;
53971;SDS011;40530;53.062;6.078;2023-12-20T08:44:02;25.38;;;5.15;;
53971;SDS011;40530;53.062;6.078;2023-12-20T08:46:28;31.92;;;5.88;;
53971;SDS011;40530;53.062;6.078;2023-12-20T08:48:55;29.85;;;4.82;;
53971;SDS011;40530;53.062;6.078;2023-12-20T08:51:21;28.17;;;4.18;;
53971;SDS011;40530;53.062;6.078;2023-12-20T08:53:48;30.00;;;5.70;;
53971;SDS011;40530;53.062;6.078;2023-12-20T08:56:14;35.22;;;4.47;;
53971;SDS011;40530;53.062;6.078;2023-12-20T08:58:41;36.72;;;6.47;;
53971;SDS011;40530;53.062;6.078;2023-12-20T09:01:07;28.35;;;4.07;;
53971;SDS011;40530;53.062;6.078;2023-12-20T09:03:34;28.58;;;4.75;;
53971;SDS011;40530;53.062;6.078;2023-12-20T09:06:00;30.73;;;5.05;;
53971;SDS011;40530;53.062;6.078;2023-12-20T09:08:26;30.67;;;5.43;;
53971;SDS011;40530;53.062;6.078;2023-12-20T09:10:52;37.25;;;5.68;;
53971;SDS011;40530;53.062;6.078;2023-12-20T09:13:18;27.73;;;4.07;;
53971;SDS011;40530;53.062;6.078;2023-12-20T09:15:45;29.38;;;5.07;;
53971;SDS011;40530;53.062;6.078;2023-12-20T09:18:11;14.65;;;2.28;;
53971;SDS011;40530;53.062;6.078;2023-12-20T09:20:37;9.55;;;1.40;;
53971;SDS011;40530;53.062;6.078;2023-12-20T09:23:03;12.77;;;1.83;;
53971;SDS011;40530;53.062;6.078;2023-12-20T09:25:29;10.25;;;1.15;;
53971;SDS011;40530;53.062;6.078;2023-12-20T09:27:55;6.65;;;0.93;;
53971;SDS011;40530;53.062;6.078;2023-12-20T09:30:22;12.68;;;1.13;;
53971;SDS011;40530;53.062;6.078;2023-12-20T09:32:48;9.00;;;1.02;;
53971;SDS011;40530;53.062;6.078;2023-12-20T09:35:14;9.52;;;1.80;;
53971;SDS011;40530;53.062;6.078;2023-12-20T09:37:40;8.18;;;1.45;;
53971;SDS011;40530;53.062;6.078;2023-12-20T09:40:09;10.52;;;1.35;;
53971;SDS011;40530;53.062;6.078;2023-12-20T09:42:48;8.70;;;1.23;;
53971;SDS011;40530;53.062;6.078;2023-12-20T09:45:16;9.27;;;1.45;;
53971;SDS011;40530;53.062;6.078;2023-12-20T09:47:45;9.77;;;1.45;;
53971;SDS011;40530;53.062;6.078;2023-12-20T09:50:11;12.57;;;1.58;;
53971;SDS011;40530;53.062;6.078;2023-12-20T09:52:38;15.82;;;1.40;;
53971;SDS011;40530;53.062;6.078;2023-12-20T09:55:05;14.20;;;3.72;;
53971;SDS011;40530;53.062;6.078;2023-12-20T09:57:32;9.80;;;1.25;;
53971;SDS011;40530;53.062;6.078;2023-12-20T09:59:58;11.05;;;1.88;;
53971;SDS011;40530;53.062;6.078;2023-12-20T10:02:24;10.00;;;1.63;;
53971;SDS011;40530;53.062;6.078;2023-12-20T10:04:52;16.08;;;2.35;;
53971;SDS011;40530;53.062;6.078;2023-12-20T10:07:18;14.73;;;1.77;;
53971;SDS011;40530;53.062;6.078;2023-12-20T10:09:45;13.57;;;2.13;;
53971;SDS011;40530;53.062;6.078;2023-12-20T10:12:12;13.73;;;2.45;;
53971;SDS011;40530;53.062;6.078;2023-12-20T10:14:41;16.80;;;1.95;;
53971;SDS011;40530;53.062;6.078;2023-12-20T10:17:07;9.02;;;1.52;;
53971;SDS011;40530;53.062;6.078;2023-12-20T10:19:33;18.30;;;2.33;;
53971;SDS011;40530;53.062;6.078;2023-12-20T10:21:59;17.48;;;2.45;;
53971;SDS011;40530;53.062;6.078;2023-12-20T10:24:28;11.80;;;1.85;;
53971;SDS011;40530;53.062;6.078;2023-12-20T10:27:04;17.55;;;3.58;;
53971;SDS011;40530;53.062;6.078;2023-12-20T10:29:31;13.82;;;2.10;;
53971;SDS011;40530;53.062;6.078;2023-12-20T10:31:58;17.73;;;1.98;;
53971;SDS011;40530;53.062;6.078;2023-12-20T10:34:24;10.45;;;2.03;;
53971;SDS011;40530;53.062;6.078;2023-12-20T10:36:50;12.88;;;2.22;;
53971;SDS011;40530;53.062;6.078;2023-12-20T10:39:18;13.85;;;1.77;;
53971;SDS011;40530;53.062;6.078;2023-12-20T10:41:45;10.77;;;1.92;;
53971;SDS011;40530;53.062;6.078;2023-12-20T10:44:11;16.73;;;2.58;;
53971;SDS011;40530;53.062;6.078;2023-12-20T10:46:38;13.40;;;2.13;;
53971;SDS011;40530;53.062;6.078;2023-12-20T10:49:05;20.25;;;1.83;;
53971;SDS011;40530;53.062;6.078;2023-12-20T10:51:32;12.32;;;2.30;;
53971;SDS011;40530;53.062;6.078;2023-12-20T10:54:00;16.13;;;3.15;;
53971;SDS011;40530;53.062;6.078;2023-12-20T10:56:26;12.48;;;1.67;;
53971;SDS011;40530;53.062;6.078;2023-12-20T10:58:55;11.15;;;1.92;;
53971;SDS011;40530;53.062;6.078;2023-12-20T11:01:21;15.82;;;2.28;;
53971;SDS011;40530;53.062;6.078;2023-12-20T11:03:49;25.08;;;3.47;;
53971;SDS011;40530;53.062;6.078;2023-12-20T11:09:11;12.52;;;1.75;;
53971;SDS011;40530;53.062;6.078;2023-12-20T11:11:42;13.27;;;1.83;;
53971;SDS011;40530;53.062;6.078;2023-12-20T11:14:58;16.23;;;3.00;;
53971;SDS011;40530;53.062;6.078;2023-12-20T11:17:09;15.13;;;3.15;;
53971;SDS011;40530;53.062;6.078;2023-12-20T11:19:43;18.77;;;2.08;;
53971;SDS011;40530;53.062;6.078;2023-12-20T11:22:27;14.18;;;2.38;;
53971;SDS011;40530;53.062;6.078;2023-12-20T11:24:53;14.85;;;2.88;;
53971;SDS011;40530;53.062;6.078;2023-12-20T11:27:21;15.32;;;2.33;;
53971;SDS011;40530;53.062;6.078;2023-12-20T11:29:58;15.98;;;3.03;;
53971;SDS011;40530;53.062;6.078;2023-12-20T11:34:55;16.27;;;2.33;;
53971;SDS011;40530;53.062;6.078;2023-12-20T11:37:22;18.15;;;2.15;;
53971;SDS011;40530;53.062;6.078;2023-12-20T11:42:32;15.80;;;2.83;;
53971;SDS011;40530;53.062;6.078;2023-12-20T11:44:59;14.15;;;2.58;;
53971;SDS011;40530;53.062;6.078;2023-12-20T11:47:28;21.52;;;3.92;;
53971;SDS011;40530;53.062;6.078;2023-12-20T11:49:54;18.33;;;2.95;;
53971;SDS011;40530;53.062;6.078;2023-12-20T11:52:21;17.27;;;2.35;;
53971;SDS011;40530;53.062;6.078;2023-12-20T11:54:47;17.45;;;2.65;;
53971;SDS011;40530;53.062;6.078;2023-12-20T11:57:13;19.77;;;3.50;;
53971;SDS011;40530;53.062;6.078;2023-12-20T11:59:39;22.80;;;7.38;;
53971;SDS011;40530;53.062;6.078;2023-12-20T12:02:05;18.83;;;3.67;;
53971;SDS011;40530;53.062;6.078;2023-12-20T12:04:32;13.13;;;2.63;;
53971;SDS011;40530;53.062;6.078;2023-12-20T12:06:58;16.92;;;2.85;;
53971;SDS011;40530;53.062;6.078;2023-12-20T12:09:24;23.50;;;4.20;;
53971;SDS011;40530;53.062;6.078;2023-12-20T12:11:50;25.77;;;4.22;;
53971;SDS011;40530;53.062;6.078;2023-12-20T12:14:16;18.08;;;3.10;;
53971;SDS011;40530;53.062;6.078;2023-12-20T12:16:44;22.17;;;3.95;;
53971;SDS011;40530;53.062;6.078;2023-12-20T12:19:23;19.17;;;3.50;;
53971;SDS011;40530;53.062;6.078;2023-12-20T12:21:50;17.23;;;2.78;;
53971;SDS011;40530;53.062;6.078;2023-12-20T12:24:19;20.30;;;2.78;;
53971;SDS011;40530;53.062;6.078;2023-12-20T12:26:52;23.95;;;3.30;;
53971;SDS011;40530;53.062;6.078;2023-12-20T12:29:18;18.27;;;3.00;;
53971;SDS011;40530;53.062;6.078;2023-12-20T12:31:44;14.55;;;2.95;;
53971;SDS011;40530;53.062;6.078;2023-12-20T12:34:10;18.60;;;1.95;;
53971;SDS011;40530;53.062;6.078;2023-12-20T12:36:37;15.38;;;2.17;;
53971;SDS011;40530;53.062;6.078;2023-12-20T12:39:03;14.05;;;2.47;;
53971;SDS011;40530;53.062;6.078;2023-12-20T12:41:30;12.38;;;2.30;;
53971;SDS011;40530;53.062;6.078;2023-12-20T12:43:56;15.00;;;2.38;;
53971;SDS011;40530;53.062;6.078;2023-12-20T12:46:22;11.25;;;1.63;;
53971;SDS011;40530;53.062;6.078;2023-12-20T12:48:48;18.92;;;2.75;;
53971;SDS011;40530;53.062;6.078;2023-12-20T12:51:15;12.55;;;1.95;;
53971;SDS011;40530;53.062;6.078;2023-12-20T12:53:41;19.10;;;2.35;;
53971;SDS011;40530;53.062;6.078;2023-12-20T12:56:07;12.23;;;2.50;;
53971;SDS011;40530;53.062;6.078;2023-12-20T12:58:33;15.40;;;2.60;;
53971;SDS011;40530;53.062;6.078;2023-12-20T13:00:59;15.18;;;1.50;;
53971;SDS011;40530;53.062;6.078;2023-12-20T13:03:26;7.32;;;1.50;;
53971;SDS011;40530;53.062;6.078;2023-12-20T13:05:52;6.35;;;1.35;;
53971;SDS011;40530;53.062;6.078;2023-12-20T13:08:18;9.38;;;2.08;;
53971;SDS011;40530;53.062;6.078;2023-12-20T13:10:44;7.32;;;1.50;;
53971;SDS011;40530;53.062;6.078;2023-12-20T13:13:10;11.65;;;2.58;;
53971;SDS011;40530;53.062;6.078;2023-12-20T13:15:36;11.95;;;2.58;;
53971;SDS011;40530;53.062;6.078;2023-12-20T13:18:02;17.38;;;2.10;;
53971;SDS011;40530;53.062;6.078;2023-12-20T13:20:29;10.73;;;1.48;;
53971;SDS011;40530;53.062;6.078;2023-12-20T13:22:55;11.25;;;1.80;;
53971;SDS011;40530;53.062;6.078;2023-12-20T13:25:21;11.13;;;2.28;;
53971;SDS011;40530;53.062;6.078;2023-12-20T13:27:48;12.15;;;2.55;;
53971;SDS011;40530;53.062;6.078;2023-12-20T13:30:16;16.30;;;2.03;;
53971;SDS011;40530;53.062;6.078;2023-12-20T13:32:42;13.48;;;2.72;;
53971;SDS011;40530;53.062;6.078;2023-12-20T13:35:09;18.45;;;2.30;;
53971;SDS011;40530;53.062;6.078;2023-12-20T13:37:35;10.07;;;1.80;;
53971;SDS011;40530;53.062;6.078;2023-12-20T13:40:01;8.93;;;1.30;;
53971;SDS011;40530;53.062;6.078;2023-12-20T13:42:29;8.57;;;1.30;;
53971;SDS011;40530;53.062;6.078;2023-12-20T13:44:55;9.98;;;1.40;;
53971;SDS011;40530;53.062;6.078;2023-12-20T13:47:21;12.50;;;1.65;;
53971;SDS011;40530;53.062;6.078;2023-12-20T13:49:47;10.27;;;1.65;;
53971;SDS011;40530;53.062;6.078;2023-12-20T13:52:13;8.25;;;1.60;;
53971;SDS011;40530;53.062;6.078;2023-12-20T13:54:39;16.17;;;1.98;;
53971;SDS011;40530;53.062;6.078;2023-12-20T13:57:05;10.23;;;1.30;;
53971;SDS011;40530;53.062;6.078;2023-12-20T13:59:31;13.40;;;1.38;;
53971;SDS011;40530;53.062;6.078;2023-12-20T14:01:57;9.07;;;1.42;;
53971;SDS011;40530;53.062;6.078;2023-12-20T14:04:23;15.98;;;2.33;;
53971;SDS011;40530;53.062;6.078;2023-12-20T14:06:49;17.80;;;2.17;;
53971;SDS011;40530;53.062;6.078;2023-12-20T14:09:15;8.20;;;1.48;;
53971;SDS011;40530;53.062;6.078;2023-12-20T14:11:41;10.93;;;1.05;;
53971;SDS011;40530;53.062;6.078;2023-12-20T14:14:08;15.95;;;1.80;;
53971;SDS011;40530;53.062;6.078;2023-12-20T14:16:34;3.78;;;1.33;;
53971;SDS011;40530;53.062;6.078;2023-12-20T14:19:01;9.75;;;1.80;;
53971;SDS011;40530;53.062;6.078;2023-12-20T14:21:28;7.97;;;1.55;;
53971;SDS011;40530;53.062;6.078;2023-12-20T14:23:54;13.50;;;2.17;;
53971;SDS011;40530;53.062;6.078;2023-12-20T14:26:20;8.25;;;1.77;;
53971;SDS011;40530;53.062;6.078;2023-12-20T14:28:46;14.70;;;2.72;;
53971;SDS011;40530;53.062;6.078;2023-12-20T14:31:12;11.82;;;2.63;;
53971;SDS011;40530;53.062;6.078;2023-12-20T14:33:38;12.23;;;1.30;;
53971;SDS011;40530;53.062;6.078;2023-12-20T14:36:06;15.30;;;1.45;;
53971;SDS011;40530;53.062;6.078;2023-12-20T14:38:32;14.48;;;1.73;;
53971;SDS011;40530;53.062;6.078;2023-12-20T14:40:58;12.82;;;2.65;;